createdAt,value
2019-02-14T00:01:05.449Z,35.50
2019-02-14T00:03:36.637Z,33.87
2019-02-14T00:06:08.053Z,35.20
2019-02-14T00:08:39.125Z,34.43
2019-02-14T00:11:10.540Z,32.07
2019-02-14T00:13:41.635Z,31.40
2019-02-14T00:16:12.932Z,30.73
2019-02-14T00:18:43.980Z,30.93
2019-02-14T00:21:15.327Z,32.33
2019-02-14T00:23:46.442Z,31.95
2019-02-14T00:26:17.729Z,29.23
2019-02-14T00:28:48.849Z,31.93
2019-02-14T00:31:20.324Z,30.80
2019-02-14T00:33:51.392Z,32.30
2019-02-14T00:36:22.908Z,32.58
2019-02-14T00:38:54.021Z,29.80
2019-02-14T00:41:25.402Z,31.03
2019-02-14T00:43:56.468Z,35.50
2019-02-14T00:46:27.726Z,35.40
2019-02-14T00:48:58.788Z,35.10
2019-02-14T00:51:30.186Z,33.30
2019-02-14T00:54:01.252Z,31.45
2019-02-14T00:56:32.678Z,33.57
2019-02-14T00:59:03.825Z,35.27
2019-02-14T01:01:35.166Z,32.30
2019-02-14T01:04:06.256Z,34.47
2019-02-14T01:06:37.871Z,34.33
2019-02-14T01:09:08.962Z,31.73
2019-02-14T01:11:40.376Z,29.02
2019-02-14T01:14:11.613Z,40.60
2019-02-14T01:16:42.934Z,33.48
2019-02-14T01:19:15.470Z,37.33
2019-02-14T01:21:46.995Z,36.42
2019-02-14T01:24:18.067Z,32.10
2019-02-14T01:26:49.492Z,32.28
2019-02-14T01:29:20.575Z,32.95
2019-02-14T01:31:51.981Z,32.88
2019-02-14T01:34:23.086Z,30.45
2019-02-14T01:36:54.680Z,33.92
2019-02-14T01:39:25.812Z,36.53
2019-02-14T01:41:57.104Z,33.73
2019-02-14T01:44:28.178Z,35.60
2019-02-14T01:46:59.568Z,31.93
2019-02-14T01:49:30.641Z,34.80
2019-02-14T01:52:01.960Z,34.13
2019-02-14T01:54:33.036Z,32.90
2019-02-14T01:57:04.360Z,37.33
2019-02-14T01:59:35.601Z,34.63
2019-02-14T02:02:07.155Z,38.50
2019-02-14T02:04:38.344Z,38.02
2019-02-14T02:07:21.434Z,37.63
2019-02-14T02:09:52.503Z,37.03
2019-02-14T02:12:24.161Z,42.53
2019-02-14T02:14:55.298Z,35.50
2019-02-14T02:17:26.616Z,30.50
2019-02-14T02:19:57.799Z,32.80
2019-02-14T02:22:29.212Z,37.45
2019-02-14T02:25:00.649Z,35.45
2019-02-14T02:27:32.011Z,31.42
2019-02-14T02:30:03.365Z,38.63
2019-02-14T02:32:35.521Z,34.03
2019-02-14T02:35:06.800Z,40.80
2019-02-14T02:37:38.247Z,35.10
2019-02-14T02:40:09.673Z,38.58
2019-02-14T02:42:40.978Z,36.30
2019-02-14T02:45:13.648Z,35.68
2019-02-14T02:47:45.368Z,36.08
2019-02-14T02:50:16.505Z,36.88
2019-02-14T02:52:47.764Z,37.85
2019-02-14T02:55:18.892Z,37.45
2019-02-14T02:57:50.267Z,40.40
2019-02-14T03:00:21.310Z,46.33
2019-02-14T03:03:00.843Z,42.30
2019-02-14T03:05:32.010Z,40.83
2019-02-14T03:08:03.333Z,38.02
2019-02-14T03:10:34.401Z,42.10
2019-02-14T03:13:05.644Z,39.03
2019-02-14T03:15:36.780Z,39.78
2019-02-14T03:18:07.957Z,49.58
2019-02-14T03:20:39.092Z,43.65
2019-02-14T03:23:10.411Z,46.48
2019-02-14T03:25:41.516Z,41.42
2019-02-14T03:28:12.900Z,40.83
2019-02-14T03:30:44.036Z,39.10
2019-02-14T03:33:15.570Z,40.85
2019-02-14T03:35:46.674Z,40.52
2019-02-14T03:38:18.092Z,42.30
2019-02-14T03:41:08.224Z,42.60
2019-02-14T03:43:39.643Z,44.35
2019-02-14T03:46:22.816Z,37.13
2019-02-14T03:48:54.108Z,44.30
2019-02-14T03:51:25.179Z,49.42
2019-02-14T03:53:56.528Z,37.83
2019-02-14T03:56:27.603Z,44.50
2019-02-14T03:58:59.046Z,43.28
2019-02-14T04:01:30.205Z,46.90
2019-02-14T04:04:01.540Z,45.55
2019-02-14T04:06:32.641Z,40.60
2019-02-14T04:09:07.069Z,41.28
2019-02-14T04:11:38.257Z,38.80
2019-02-14T04:14:28.560Z,43.25
2019-02-14T04:16:59.669Z,41.50
2019-02-14T04:19:30.909Z,38.98
2019-02-14T04:22:02.022Z,41.55
2019-02-14T04:24:33.191Z,48.13
2019-02-14T04:27:04.464Z,39.60
2019-02-14T04:29:35.769Z,44.95
2019-02-14T04:32:07.105Z,40.98
2019-02-14T04:34:38.474Z,42.43
2019-02-14T04:37:09.794Z,42.20
2019-02-14T04:39:41.077Z,52.70
2019-02-14T04:42:12.217Z,42.98
2019-02-14T04:44:43.421Z,43.95
2019-02-14T04:47:14.519Z,53.87
2019-02-14T04:49:45.772Z,49.00
2019-02-14T04:52:16.873Z,44.95
2019-02-14T04:54:48.089Z,40.63
2019-02-14T04:57:19.180Z,49.60
2019-02-14T04:59:50.503Z,46.85
2019-02-14T05:02:21.635Z,41.53
2019-02-14T05:04:53.161Z,48.60
2019-02-14T05:07:24.346Z,44.73
2019-02-14T05:09:55.733Z,44.93
2019-02-14T05:12:27.029Z,41.88
2019-02-14T05:14:58.279Z,46.88
2019-02-14T05:17:29.393Z,46.68
2019-02-14T05:20:00.663Z,42.50
2019-02-14T05:22:31.734Z,44.40
2019-02-14T05:25:03.217Z,51.88
2019-02-14T05:27:34.309Z,42.13
2019-02-14T05:30:05.874Z,42.93
2019-02-14T05:32:36.984Z,42.93
2019-02-14T05:35:08.655Z,47.88
2019-02-14T05:37:39.747Z,43.73
2019-02-14T05:40:11.017Z,42.55
2019-02-14T05:42:42.167Z,46.98
2019-02-14T05:45:13.882Z,41.80
2019-02-14T05:47:45.001Z,44.55
2019-02-14T05:50:16.839Z,43.40
2019-02-14T05:52:48.267Z,40.67
2019-02-14T05:55:19.716Z,44.18
2019-02-14T05:57:51.066Z,52.40
2019-02-14T06:00:22.535Z,44.03
2019-02-14T06:02:53.813Z,36.42
2019-02-14T06:05:25.219Z,42.88
2019-02-14T06:07:56.505Z,40.60
2019-02-14T06:10:29.243Z,46.02
2019-02-14T06:13:00.541Z,42.88
2019-02-14T06:15:31.865Z,37.90
2019-02-14T06:18:03.273Z,37.38
2019-02-14T06:20:34.925Z,40.73
2019-02-14T06:23:06.017Z,43.98
2019-02-14T06:25:37.465Z,39.05
2019-02-14T06:28:08.574Z,46.25
2019-02-14T06:30:41.167Z,42.85
2019-02-14T06:33:13.431Z,46.95
2019-02-14T06:35:44.785Z,45.48
2019-02-14T06:38:16.126Z,46.00
2019-02-14T06:40:47.593Z,44.83
2019-02-14T06:43:19.273Z,44.75
2019-02-14T06:45:50.704Z,51.63
2019-02-14T06:48:21.805Z,47.62
2019-02-14T06:50:53.201Z,44.42
2019-02-14T06:53:24.522Z,42.75
2019-02-14T06:55:55.995Z,49.55
2019-02-14T06:58:27.153Z,40.90
2019-02-14T07:00:58.798Z,38.92
2019-02-14T07:03:29.879Z,41.75
2019-02-14T07:06:01.285Z,48.25
2019-02-14T07:08:32.350Z,45.83
2019-02-14T07:11:03.784Z,51.53
2019-02-14T07:13:34.854Z,47.88
2019-02-14T07:16:06.082Z,48.92
2019-02-14T07:18:37.391Z,47.27
2019-02-14T07:21:08.844Z,46.95
2019-02-14T07:23:40.051Z,49.03
2019-02-14T07:26:11.470Z,45.38
2019-02-14T07:28:42.983Z,48.48
2019-02-14T07:31:14.166Z,42.03
2019-02-14T07:33:45.296Z,51.45
2019-02-14T07:36:16.677Z,46.18
2019-02-14T07:38:48.060Z,52.60
2019-02-14T07:41:19.469Z,49.27
2019-02-14T07:43:50.603Z,45.70
2019-02-14T07:46:22.997Z,53.20
2019-02-14T07:48:54.391Z,48.50
2019-02-14T07:51:25.792Z,43.73
2019-02-14T07:53:57.163Z,47.25
2019-02-14T07:56:29.409Z,46.92
2019-02-14T07:59:00.712Z,47.40
2019-02-14T08:01:32.212Z,50.70
2019-02-14T08:04:03.302Z,50.28
2019-02-14T08:06:34.813Z,48.50
2019-02-14T08:09:06.989Z,52.30
2019-02-14T08:11:38.325Z,47.98
2019-02-14T08:14:09.410Z,41.77
2019-02-14T08:16:40.731Z,51.43
2019-02-14T08:19:11.976Z,48.20
2019-02-14T08:21:43.426Z,47.13
2019-02-14T08:24:14.525Z,52.23
2019-02-14T08:26:45.661Z,46.63
2019-02-14T08:29:16.733Z,48.27
2019-02-14T08:31:48.198Z,55.83
2019-02-14T08:34:19.241Z,44.00
2019-02-14T08:36:50.481Z,46.50
2019-02-14T08:39:21.556Z,44.50
2019-02-14T08:41:52.789Z,42.30
2019-02-14T08:44:23.956Z,40.87
2019-02-14T08:46:55.373Z,47.23
2019-02-14T08:49:26.444Z,46.50
2019-02-14T08:51:57.887Z,44.17
2019-02-14T08:54:30.143Z,45.53
2019-02-14T08:57:01.497Z,45.27
2019-02-14T08:59:32.744Z,41.07
2019-02-14T09:02:04.093Z,39.87
2019-02-14T09:04:35.376Z,42.47
2019-02-14T09:07:06.696Z,43.13
2019-02-14T09:09:37.892Z,40.60
2019-02-14T09:12:09.292Z,45.30
2019-02-14T09:14:41.743Z,38.57
2019-02-14T09:17:13.115Z,46.30
2019-02-14T09:19:44.747Z,40.33
2019-02-14T09:22:16.116Z,44.70
2019-02-14T09:24:47.219Z,42.77
2019-02-14T09:27:18.917Z,45.50
2019-02-14T09:29:50.199Z,39.53
2019-02-14T09:32:25.331Z,39.43
2019-02-14T09:34:56.439Z,41.93
2019-02-14T09:37:27.818Z,36.57
2019-02-14T09:39:59.457Z,38.30
2019-02-14T09:42:31.001Z,38.57
2019-02-14T09:45:02.099Z,40.33
2019-02-14T09:47:33.700Z,40.37
2019-02-14T09:50:06.384Z,35.93
2019-02-14T09:52:37.736Z,37.63
2019-02-14T09:55:09.374Z,37.83
2019-02-14T09:57:40.734Z,38.00
2019-02-14T10:00:14.329Z,37.90
2019-02-14T10:02:47.222Z,41.10
2019-02-14T10:05:18.281Z,39.80
2019-02-14T10:07:49.727Z,46.33
2019-02-14T10:10:20.897Z,44.57
2019-02-14T10:12:52.523Z,50.00
2019-02-14T10:15:23.688Z,46.93
2019-02-14T10:17:55.022Z,40.00
2019-02-14T10:20:26.280Z,40.87
2019-02-14T10:22:57.682Z,44.00
2019-02-14T10:25:28.802Z,50.13
2019-02-14T10:28:00.567Z,46.70
2019-02-14T10:30:31.714Z,45.67
2019-02-14T10:33:03.221Z,48.50
2019-02-14T10:35:34.548Z,48.00
2019-02-14T10:38:06.278Z,49.20
2019-02-14T10:40:37.510Z,42.60
2019-02-14T10:43:09.162Z,42.83
2019-02-14T10:45:40.301Z,40.53
2019-02-14T10:48:12.022Z,44.47
2019-02-14T10:50:43.154Z,42.63
2019-02-14T10:53:14.727Z,48.27
2019-02-14T10:55:46.096Z,38.60
2019-02-14T10:58:17.846Z,38.83
2019-02-14T11:00:48.907Z,41.13
2019-02-14T11:03:20.239Z,39.40
2019-02-14T11:05:51.514Z,39.80
2019-02-14T11:08:31.438Z,39.70
2019-02-14T11:10:56.603Z,35.57
2019-02-14T11:13:27.930Z,38.90
2019-02-14T11:15:58.972Z,39.10
2019-02-14T11:18:30.366Z,36.70
2019-02-14T11:21:01.633Z,35.87
2019-02-14T11:23:33.077Z,36.70
2019-02-14T11:26:04.167Z,33.17
2019-02-14T11:28:35.810Z,31.00
2019-02-14T11:31:06.858Z,33.03
2019-02-14T11:33:38.272Z,36.33
2019-02-14T11:36:09.458Z,34.30
2019-02-14T11:38:41.010Z,33.10
2019-02-14T11:41:12.215Z,34.20
2019-02-14T11:43:43.470Z,32.00
2019-02-14T11:46:14.556Z,37.53
2019-02-14T11:48:47.858Z,36.20
2019-02-14T11:51:18.956Z,33.50
2019-02-14T11:53:50.201Z,36.70
2019-02-14T11:56:40.333Z,35.03
2019-02-14T11:59:11.571Z,34.50
2019-02-14T12:01:42.784Z,31.37
2019-02-14T12:04:14.346Z,33.60
2019-02-14T12:06:45.529Z,34.30
2019-02-14T12:09:17.305Z,35.70
2019-02-14T12:11:48.425Z,35.50
2019-02-14T12:14:19.845Z,34.97
2019-02-14T12:16:51.313Z,33.77
2019-02-14T12:19:23.250Z,32.47
2019-02-14T12:21:54.369Z,35.17
2019-02-14T12:24:25.641Z,32.67
2019-02-14T12:26:56.800Z,33.90
2019-02-14T12:29:28.455Z,29.80
2019-02-14T12:31:59.560Z,32.10
2019-02-14T12:34:30.838Z,29.63
2019-02-14T12:37:02.128Z,36.90
2019-02-14T12:39:33.559Z,30.37
2019-02-14T12:42:04.687Z,28.83
2019-02-14T12:44:36.016Z,27.30
2019-02-14T12:47:07.152Z,29.70
2019-02-14T12:49:38.509Z,25.47
2019-02-14T12:52:10.913Z,32.10
2019-02-14T12:54:42.242Z,27.70
2019-02-14T12:57:13.573Z,29.13
2019-02-14T12:59:45.146Z,22.73
2019-02-14T13:02:16.208Z,24.60
2019-02-14T13:04:47.447Z,26.93
2019-02-14T13:07:20.357Z,27.17
2019-02-14T13:09:51.575Z,27.17
2019-02-14T13:12:22.768Z,35.20
2019-02-14T13:14:54.279Z,28.73
2019-02-14T13:17:25.334Z,28.30
2019-02-14T13:19:56.974Z,27.87
2019-02-14T13:22:28.163Z,30.80
2019-02-14T13:24:59.372Z,29.10
2019-02-14T13:27:30.543Z,32.07
2019-02-14T13:30:02.062Z,29.93
2019-02-14T13:32:33.258Z,29.13
2019-02-14T13:35:06.189Z,32.33
2019-02-14T13:37:37.354Z,29.40
2019-02-14T13:40:09.072Z,34.70
2019-02-14T13:42:40.292Z,33.87
2019-02-14T13:45:13.756Z,31.40
2019-02-14T13:47:45.025Z,32.13
2019-02-14T13:50:16.361Z,35.57
2019-02-14T13:52:47.771Z,33.27
2019-02-14T13:55:19.029Z,31.57
2019-02-14T13:57:50.804Z,27.60
2019-02-14T14:00:24.902Z,30.47
2019-02-14T14:02:56.124Z,26.93
2019-02-14T14:05:27.827Z,29.20
2019-02-14T14:08:00.335Z,27.63
2019-02-14T14:10:31.977Z,28.80
2019-02-14T14:13:03.441Z,27.60
2019-02-14T14:15:34.740Z,28.57
2019-02-14T14:18:05.833Z,28.10
2019-02-14T14:20:37.149Z,31.07
2019-02-14T14:23:08.329Z,28.90
2019-02-14T14:25:40.045Z,27.47
2019-02-14T14:28:11.331Z,24.90
2019-02-14T14:30:42.840Z,24.57
2019-02-14T14:33:13.951Z,30.17
2019-02-14T14:35:46.563Z,30.73
2019-02-14T14:38:17.897Z,32.10
2019-02-14T14:40:49.260Z,30.83
2019-02-14T14:43:28.644Z,26.40
2019-02-14T14:46:21.176Z,22.17
2019-02-14T14:48:52.255Z,27.30
2019-02-14T14:51:24.009Z,27.73
2019-02-14T14:53:55.363Z,24.87
2019-02-14T14:56:26.883Z,31.13
2019-02-14T14:58:58.045Z,31.03
2019-02-14T15:01:29.651Z,28.50
2019-02-14T15:04:00.845Z,30.30
2019-02-14T15:06:32.194Z,32.00
2019-02-14T15:09:03.719Z,30.80
2019-02-14T15:11:35.665Z,29.40
2019-02-14T15:14:06.895Z,29.67
2019-02-14T15:16:38.566Z,32.30
2019-02-14T15:19:10.137Z,37.57
2019-02-14T15:21:41.485Z,32.93
2019-02-14T15:24:12.578Z,37.00
2019-02-14T15:26:43.982Z,34.90
2019-02-14T15:29:15.319Z,32.10
2019-02-14T15:31:46.673Z,28.33
2019-02-14T15:34:17.874Z,31.13
2019-02-14T15:36:49.520Z,37.37
2019-02-14T15:39:22.167Z,29.30
2019-02-14T15:41:55.943Z,36.37
2019-02-14T15:44:26.546Z,28.87
2019-02-14T15:46:57.857Z,29.37
2019-02-14T15:49:29.171Z,32.47
2019-02-14T15:52:00.620Z,34.83
2019-02-14T15:54:33.087Z,34.33
2019-02-14T15:57:05.388Z,35.37
2019-02-14T15:59:37.046Z,37.40
2019-02-14T16:02:08.564Z,38.20
2019-02-14T16:04:39.899Z,36.57
2019-02-14T16:07:13.618Z,31.00
2019-02-14T16:09:45.857Z,32.87
2019-02-14T16:12:17.758Z,34.23
2019-02-14T16:14:50.076Z,32.50
2019-02-14T16:17:21.297Z,36.17
2019-02-14T16:19:57.547Z,40.07
2019-02-14T16:22:30.297Z,36.50
2019-02-14T16:25:04.483Z,33.53
2019-02-14T16:27:39.294Z,38.07
2019-02-14T16:30:21.755Z,37.27
2019-02-14T16:32:53.191Z,48.30
2019-02-14T16:35:24.972Z,38.73
2019-02-14T16:37:57.947Z,41.00
2019-02-14T16:40:38.000Z,34.83
2019-02-14T16:43:02.389Z,39.43
2019-02-14T16:45:33.492Z,31.63
2019-02-14T16:48:04.959Z,33.53
2019-02-14T16:50:36.247Z,40.80
2019-02-14T16:53:07.530Z,40.83
2019-02-14T16:55:38.606Z,42.33
2019-02-14T16:58:09.815Z,33.13
2019-02-14T17:00:40.895Z,34.10
2019-02-14T17:03:12.149Z,40.60
2019-02-14T17:05:43.511Z,38.63
2019-02-14T17:08:14.920Z,35.30
2019-02-14T17:10:46.022Z,45.10
2019-02-14T17:13:17.531Z,34.37
2019-02-14T17:15:48.799Z,37.53
2019-02-14T17:18:20.117Z,38.80
2019-02-14T17:20:51.235Z,31.97
2019-02-14T17:23:22.842Z,33.47
2019-02-14T17:25:54.026Z,41.73
2019-02-14T17:28:25.301Z,35.70
2019-02-14T17:30:56.397Z,42.93
2019-02-14T17:33:27.822Z,38.23
2019-02-14T17:36:17.964Z,47.67
2019-02-14T17:38:49.235Z,38.70
2019-02-14T17:41:20.386Z,38.93
2019-02-14T17:43:51.749Z,38.83
2019-02-14T17:46:22.872Z,43.50
2019-02-14T17:48:54.341Z,49.50
2019-02-14T17:51:26.605Z,40.70
2019-02-14T17:53:58.065Z,36.50
2019-02-14T17:56:29.114Z,42.03
2019-02-14T17:59:01.011Z,41.50
2019-02-14T18:01:34.155Z,41.20
2019-02-14T18:04:05.423Z,37.60
2019-02-14T18:06:36.495Z,36.37
2019-02-14T18:09:07.806Z,34.30
2019-02-14T18:11:39.049Z,41.40
2019-02-14T18:14:10.385Z,37.07
2019-02-14T18:16:41.483Z,40.30
2019-02-14T18:19:12.729Z,36.60
2019-02-14T18:21:43.877Z,42.03
2019-02-14T18:24:15.282Z,41.23
2019-02-14T18:26:46.408Z,45.60
2019-02-14T18:29:17.781Z,36.80
2019-02-14T18:31:48.971Z,38.27
2019-02-14T18:34:20.243Z,34.27
2019-02-14T18:36:51.333Z,33.43
2019-02-14T18:39:22.703Z,40.97
2019-02-14T18:41:53.841Z,42.37
2019-02-14T18:44:25.262Z,45.20
2019-02-14T18:46:56.451Z,41.30
2019-02-14T18:49:27.837Z,35.90
2019-02-14T18:51:58.978Z,35.77
2019-02-14T18:54:30.453Z,37.27
2019-02-14T18:57:01.597Z,35.40
2019-02-14T18:59:41.647Z,45.23
2019-02-14T19:02:12.701Z,36.90
2019-02-14T19:04:43.994Z,45.13
2019-02-14T19:07:15.136Z,39.90
2019-02-14T19:09:46.549Z,37.20
2019-02-14T19:12:17.846Z,41.33
2019-02-14T19:14:49.125Z,43.10
2019-02-14T19:17:20.215Z,47.83
2019-02-14T19:19:51.713Z,37.80
2019-02-14T19:22:24.044Z,37.77
2019-02-14T19:24:55.565Z,40.97
2019-02-14T19:27:45.740Z,33.47
2019-02-14T19:30:17.234Z,34.47
2019-02-14T19:32:48.409Z,43.87
2019-02-14T19:35:23.026Z,40.63
2019-02-14T19:37:52.529Z,36.77
2019-02-14T19:40:23.926Z,36.10
2019-02-14T19:42:55.021Z,41.50
2019-02-14T19:45:36.053Z,33.53
2019-02-14T19:47:59.259Z,39.17
2019-02-14T19:50:30.540Z,33.67
2019-02-14T19:53:01.713Z,36.50
2019-02-14T19:55:33.155Z,34.60
2019-02-14T19:58:04.305Z,46.93
2019-02-14T20:00:35.635Z,41.13
2019-02-14T20:03:06.810Z,34.83
2019-02-14T20:05:38.144Z,36.60
2019-02-14T20:08:09.323Z,36.00
2019-02-14T20:10:40.662Z,33.80
2019-02-14T20:13:11.905Z,39.67
2019-02-14T20:15:43.327Z,35.63
2019-02-14T20:18:14.621Z,39.60
2019-02-14T20:20:46.116Z,39.57
2019-02-14T20:23:17.203Z,36.80
2019-02-14T20:25:48.724Z,46.83
2019-02-14T20:28:19.874Z,35.30
2019-02-14T20:30:51.212Z,46.03
2019-02-14T20:33:22.308Z,40.47
2019-02-14T20:35:53.518Z,39.47
2019-02-14T20:38:24.692Z,34.83
2019-02-14T20:40:56.109Z,36.37
2019-02-14T20:43:27.255Z,32.70
2019-02-14T20:45:58.613Z,35.40
2019-02-14T20:48:29.785Z,35.37
2019-02-14T20:51:01.205Z,36.20
2019-02-14T20:53:32.553Z,36.70
2019-02-14T20:56:04.005Z,45.80
2019-02-14T20:58:35.273Z,41.57
2019-02-14T21:01:09.056Z,35.47
2019-02-14T21:03:40.285Z,33.63
2019-02-14T21:06:11.625Z,33.80
2019-02-14T21:08:42.833Z,32.33
2019-02-14T21:11:14.376Z,42.27
2019-02-14T21:13:45.624Z,31.83
2019-02-14T21:16:17.182Z,33.93
2019-02-14T21:18:49.766Z,36.33
2019-02-14T21:21:21.495Z,34.87
2019-02-14T21:23:52.674Z,42.67
2019-02-14T21:26:24.029Z,34.07
2019-02-14T21:28:55.398Z,32.00
2019-02-14T21:31:26.895Z,32.93
2019-02-14T21:33:58.057Z,29.77
2019-02-14T21:36:29.492Z,34.80
2019-02-14T21:39:00.700Z,37.17
2019-02-14T21:41:33.704Z,38.93
2019-02-14T21:44:04.998Z,42.70
2019-02-14T21:46:55.678Z,46.67
2019-02-14T21:49:26.883Z,44.17
2019-02-14T21:51:58.380Z,41.50
2019-02-14T21:54:29.661Z,39.50
2019-02-14T21:57:01.111Z,43.53
2019-02-14T21:59:32.630Z,39.63
2019-02-14T22:02:06.390Z,41.33
2019-02-14T22:04:38.030Z,37.53
2019-02-14T22:07:09.550Z,41.40
2019-02-14T22:09:52.323Z,35.40
2019-02-14T22:12:38.844Z,37.60
2019-02-14T22:14:59.391Z,36.87
2019-02-14T22:17:30.752Z,50.97
2019-02-14T22:20:01.965Z,39.30
2019-02-14T22:22:33.722Z,37.47
2019-02-14T22:25:05.099Z,38.90
2019-02-14T22:27:36.409Z,44.87
2019-02-14T22:30:12.699Z,44.90
2019-02-14T22:32:44.222Z,38.63
2019-02-14T22:35:15.447Z,42.40
2019-02-14T22:37:46.920Z,41.07
2019-02-14T22:40:18.131Z,47.13
2019-02-14T22:42:49.531Z,38.13
2019-02-14T22:45:20.675Z,40.90
2019-02-14T22:47:51.965Z,42.80
2019-02-14T22:50:24.057Z,39.30
2019-02-14T22:52:55.448Z,31.57
2019-02-14T22:55:26.634Z,74.57
2019-02-14T22:57:58.151Z,40.33
2019-02-14T23:00:37.508Z,41.67
2019-02-14T23:03:10.452Z,45.07
2019-02-14T23:05:41.697Z,39.50
2019-02-14T23:08:13.081Z,55.50
2019-02-14T23:10:44.324Z,38.90
2019-02-14T23:13:15.655Z,43.87
2019-02-14T23:15:46.879Z,39.33
2019-02-14T23:18:18.349Z,34.83
2019-02-14T23:20:49.509Z,42.00
2019-02-14T23:23:20.864Z,47.97
2019-02-14T23:25:52.081Z,41.13
2019-02-14T23:28:23.638Z,43.60
2019-02-14T23:30:54.769Z,47.60
2019-02-14T23:33:26.135Z,40.73
2019-02-14T23:35:57.260Z,44.03
2019-02-14T23:38:28.623Z,37.83
2019-02-14T23:40:59.821Z,42.60
2019-02-14T23:43:31.223Z,41.40
2019-02-14T23:46:02.329Z,49.70
2019-02-14T23:48:33.710Z,43.23
2019-02-14T23:51:04.926Z,42.77
2019-02-14T23:53:36.313Z,40.30
2019-02-14T23:56:18.899Z,35.13
2019-02-14T23:58:50.428Z,46.17
